Time;durP1;ratioP1;P1;durP2;ratioP2;P2;SDS_P1;SDS_P2;PMS_P1;PMS_P2;Temp;Humidity;BMP_temperature;BMP_pressure;BME280_temperature;BME280_humidity;BME280_pressure;Samples;Min_cycle;Max_cycle;Signal;HPM_P1;HPM_P2
2021/04/20 00:01:24;;;;;;;1999.90;999.90;;;7.50;81.40;;;;;;5056521;28;20044;-70
2021/04/20 00:03:51;;;;;;;1999.90;999.90;;;7.40;80.70;;;;;;5068532;28;20175;-71
2021/04/20 00:06:20;;;;;;;1999.90;999.90;;;7.40;80.80;;;;;;5069911;28;20041;-70
2021/04/20 00:08:46;;;;;;;1999.90;999.90;;;7.40;80.80;;;;;;5043388;28;20142;-71
2021/04/20 00:11:12;;;;;;;1999.90;999.90;;;7.40;80.90;;;;;;5071667;28;20049;-70
2021/04/20 00:13:39;;;;;;;1999.90;999.90;;;7.40;80.90;;;;;;5061441;28;20099;-71
2021/04/20 00:16:05;;;;;;;1999.90;999.90;;;7.40;81.00;;;;;;5047202;28;20049;-71
2021/04/20 00:18:31;;;;;;;1999.90;999.90;;;7.40;81.00;;;;;;5070666;28;20231;-71
2021/04/20 00:20:57;;;;;;;1999.90;999.90;;;7.40;81.10;;;;;;5073786;28;20049;-71
2021/04/20 00:23:24;;;;;;;1999.90;999.90;;;7.50;81.20;;;;;;5074788;28;20044;-70
2021/04/20 00:25:50;;;;;;;1999.90;999.90;;;7.50;81.30;;;;;;5068706;28;20047;-71
2021/04/20 00:28:24;;;;;;;1999.90;999.90;;;7.50;81.40;;;;;;5051272;28;20083;-71
2021/04/20 00:30:51;;;;;;;1999.90;999.90;;;7.50;81.40;;;;;;5068686;28;20090;-70
2021/04/20 00:33:18;;;;;;;1999.90;999.90;;;7.50;81.40;;;;;;5069511;28;20139;-72
2021/04/20 00:35:45;;;;;;;1999.90;999.90;;;7.50;81.40;;;;;;5062418;28;20055;-71
2021/04/20 00:38:12;;;;;;;1999.90;999.90;;;7.50;81.60;;;;;;5064484;28;20049;-70
2021/04/20 00:40:38;;;;;;;1999.90;999.90;;;7.40;81.60;;;;;;5045134;28;20053;-70
2021/04/20 00:43:05;;;;;;;1999.90;999.90;;;7.40;81.80;;;;;;5053123;28;20040;-70
2021/04/20 00:45:33;;;;;;;1999.90;999.90;;;7.40;82.00;;;;;;5057335;28;20055;-70
2021/04/20 00:48:01;;;;;;;1999.90;999.90;;;7.50;82.20;;;;;;5061792;28;20051;-71
2021/04/20 00:50:36;;;;;;;1999.90;999.90;;;7.50;82.20;;;;;;5049104;28;20047;-71
2021/04/20 00:53:03;;;;;;;1999.90;999.90;;;7.50;82.30;;;;;;5038977;28;20041;-70
2021/04/20 00:55:30;;;;;;;1999.90;999.90;;;7.50;82.40;;;;;;5057467;28;20371;-71
2021/04/20 00:57:56;;;;;;;1999.90;999.90;;;7.60;82.70;;;;;;5062814;28;20073;-70
2021/04/20 01:00:28;;;;;;;1999.90;999.90;;;7.60;82.80;;;;;;5057739;28;20127;-71
2021/04/20 01:02:55;;;;;;;1999.90;999.90;;;7.70;82.90;;;;;;5070724;28;20046;-71
2021/04/20 01:05:29;;;;;;;1999.90;999.90;;;7.70;82.90;;;;;;5046055;28;20136;-70
2021/04/20 01:08:06;;;;;;;1999.90;999.90;;;7.70;83.10;;;;;;5054113;28;20044;-71
2021/04/20 01:10:35;;;;;;;1999.90;999.90;;;7.70;83.20;;;;;;5044182;28;20128;-70
2021/04/20 01:13:03;;;;;;;1999.90;999.90;;;7.80;83.30;;;;;;5051086;28;20075;-71
2021/04/20 01:15:31;;;;;;;1999.90;999.90;;;7.80;83.50;;;;;;5055309;28;20041;-71
2021/04/20 01:18:07;;;;;;;1999.90;999.90;;;7.80;83.60;;;;;;5067715;28;20059;-70
2021/04/20 01:20:34;;;;;;;1999.90;999.90;;;7.80;83.70;;;;;;5063916;28;20442;-71
2021/04/20 01:23:01;;;;;;;1999.90;999.90;;;7.80;83.80;;;;;;5064619;28;20075;-70
2021/04/20 01:25:28;;;;;;;1999.90;999.90;;;7.80;83.70;;;;;;5066067;28;20415;-71
2021/04/20 01:27:55;;;;;;;1999.90;999.90;;;7.80;83.80;;;;;;5063743;28;20052;-70
2021/04/20 01:30:21;;;;;;;1999.90;999.90;;;7.80;84.00;;;;;;5070191;28;20075;-70
2021/04/20 01:32:48;;;;;;;1999.90;999.90;;;7.80;84.10;;;;;;5065272;28;20072;-71
2021/04/20 01:35:14;;;;;;;1999.90;999.90;;;7.80;84.10;;;;;;5062485;28;20136;-71
2021/04/20 01:37:40;;;;;;;1999.90;999.90;;;7.90;84.20;;;;;;5059475;28;20055;-71
2021/04/20 01:40:08;;;;;;;1999.90;999.90;;;7.90;84.40;;;;;;5063541;28;20468;-71
2021/04/20 01:42:44;;;;;;;1999.90;999.90;;;7.80;84.30;;;;;;5059122;28;20055;-71
2021/04/20 01:45:11;;;;;;;1999.90;999.90;;;7.90;84.40;;;;;;5068721;28;20055;-71
2021/04/20 01:47:37;;;;;;;1999.90;999.90;;;7.90;84.40;;;;;;5046424;28;20041;-71
2021/04/20 01:50:05;;;;;;;1999.90;999.90;;;7.90;84.50;;;;;;5067589;28;20130;-70
2021/04/20 01:52:31;;;;;;;1999.90;999.90;;;7.90;84.50;;;;;;5066323;28;20047;-71
2021/04/20 01:54:58;;;;;;;1999.90;999.90;;;7.80;84.50;;;;;;5059597;28;20425;-71
2021/04/20 01:57:30;;;;;;;1999.90;999.90;;;7.80;84.50;;;;;;5064726;28;20055;-70
2021/04/20 01:59:57;;;;;;;1999.90;999.90;;;7.70;84.30;;;;;;5068736;28;20072;-71
2021/04/20 02:02:24;;;;;;;1999.90;999.90;;;7.70;84.30;;;;;;5058205;28;20048;-69
2021/04/20 02:04:50;;;;;;;1999.90;999.90;;;7.70;84.20;;;;;;5036228;28;20480;-71
2021/04/20 02:07:17;;;;;;;1999.90;999.90;;;7.60;84.10;;;;;;5057423;28;20049;-70
2021/04/20 02:09:43;;;;;;;1999.90;999.90;;;7.60;84.00;;;;;;5059198;28;20053;-70
2021/04/20 02:12:10;;;;;;;1999.90;999.90;;;7.50;83.90;;;;;;5056676;28;20040;-72
2021/04/20 02:15:20;;;;;;;1999.90;999.90;;;7.50;83.80;;;;;;5051555;28;20053;-70
2021/04/20 02:17:47;;;;;;;1999.90;999.90;;;7.40;83.70;;;;;;5063600;28;20063;-70
2021/04/20 02:20:14;;;;;;;1999.90;999.90;;;7.40;83.50;;;;;;5069745;28;20048;-70
2021/04/20 02:22:43;;;;;;;1999.90;999.90;;;7.30;83.50;;;;;;5062121;28;20404;-70
2021/04/20 02:25:11;;;;;;;;;;;7.30;83.50;;;;;;5059067;28;20128;-70
2021/04/20 02:27:38;;;;;;;1999.90;999.90;;;7.30;83.90;;;;;;5054093;28;20011;-70
2021/04/20 02:30:06;;;;;;;1999.90;999.90;;;7.20;83.30;;;;;;5062488;28;20044;-70
2021/04/20 02:32:35;;;;;;;1999.90;999.90;;;7.20;83.20;;;;;;5061562;28;20048;-70
2021/04/20 02:35:05;;;;;;;1999.90;999.90;;;7.10;83.00;;;;;;5062895;28;20064;-71
2021/04/20 02:37:34;;;;;;;1999.90;999.90;;;7.10;83.60;;;;;;5035620;28;20144;-71
2021/04/20 02:40:00;;;;;;;1999.90;999.90;;;7.10;83.00;;;;;;5038960;28;20051;-71
2021/04/20 02:42:26;;;;;;;1999.90;999.90;;;7.00;82.90;;;;;;5066446;28;20051;-71
2021/04/20 02:44:53;;;;;;;1999.90;999.90;;;7.00;82.90;;;;;;5038606;28;20073;-70
2021/04/20 02:47:29;;;;;;;1999.90;999.90;;;7.00;82.90;;;;;;5039969;28;20041;-70
2021/04/20 02:49:56;;;;;;;1999.90;999.90;;;6.90;82.80;;;;;;5062491;28;20127;-70
2021/04/20 02:52:24;;;;;;;1999.90;999.90;;;6.90;82.90;;;;;;5065630;28;20587;-70
2021/04/20 02:54:51;;;;;;;1999.90;999.90;;;6.80;82.90;;;;;;5061738;28;20063;-71
2021/04/20 02:57:18;;;;;;;1999.90;999.90;;;6.80;82.90;;;;;;5042966;28;20136;-70
2021/04/20 02:59:45;;;;;;;1999.90;999.90;;;6.80;83.00;;;;;;5065685;28;20045;-70
2021/04/20 03:02:12;;;;;;;1999.90;999.90;;;6.70;82.90;;;;;;5042180;28;20072;-71
2021/04/20 03:04:39;;;;;;;1999.90;999.90;;;6.70;83.00;;;;;;5059842;28;20069;-70
2021/04/20 03:07:06;;;;;;;1999.90;999.90;;;6.70;82.90;;;;;;5062211;28;20054;-70
2021/04/20 03:09:34;;;;;;;1999.90;999.90;;;6.60;82.80;;;;;;5057038;28;20044;-70
2021/04/20 03:12:01;;;;;;;1999.90;999.90;;;6.50;82.90;;;;;;5050336;28;20044;-70
2021/04/20 03:14:28;;;;;;;1999.90;999.90;;;6.50;83.10;;;;;;5060310;28;20049;-70
2021/04/20 03:16:55;;;;;;;1999.90;999.90;;;6.40;83.00;;;;;;5050416;28;20494;-70
2021/04/20 03:19:22;;;;;;;1999.90;999.90;;;6.40;83.00;;;;;;5043151;28;20102;-70
2021/04/20 03:21:50;;;;;;;1999.90;999.90;;;6.40;83.00;;;;;;5059020;28;20566;-70
2021/04/20 03:24:48;;;;;;;1999.90;999.90;;;6.40;83.00;;;;;;5059529;28;20045;-70
2021/04/20 03:27:15;;;;;;;1999.90;999.90;;;6.40;83.10;;;;;;5055244;28;20044;-70
2021/04/20 03:29:41;;;;;;;1999.90;999.90;;;6.40;83.00;;;;;;5069284;28;20063;-70
2021/04/20 03:32:07;;;;;;;1999.90;999.90;;;6.30;82.90;;;;;;5067084;28;20144;-70
2021/04/20 03:34:39;;;;;;;1999.90;999.90;;;6.30;82.80;;;;;;5063321;28;20472;-70
2021/04/20 03:37:09;;;;;;;1999.90;999.90;;;6.30;82.80;;;;;;5063390;28;20388;-70
2021/04/20 03:39:39;;;;;;;1999.90;999.90;;;6.30;82.90;;;;;;5069116;28;20131;-71
2021/04/20 03:42:19;;;;;;;1999.90;999.90;;;6.20;82.60;;;;;;5054176;28;20136;-70
2021/04/20 03:44:50;;;;;;;1999.90;999.90;;;6.20;82.70;;;;;;5066927;28;20040;-71
2021/04/20 03:47:25;;;;;;;1999.90;999.90;;;6.10;82.60;;;;;;5059582;28;20459;-70
2021/04/20 03:49:56;;;;;;;1999.90;999.90;;;6.10;82.70;;;;;;5056976;28;20040;-71
2021/04/20 03:52:33;;;;;;;1999.90;999.90;;;6.00;82.60;;;;;;5051536;28;20052;-71
2021/04/20 03:55:02;;;;;;;1999.90;999.90;;;6.00;82.60;;;;;;5050515;28;20052;-71
2021/04/20 03:57:34;;;;;;;1999.90;999.90;;;6.00;82.60;;;;;;5055263;28;20517;-70
2021/04/20 04:00:07;;;;;;;1999.90;999.90;;;6.00;82.80;;;;;;5065942;28;20474;-70
2021/04/20 04:02:36;;;;;;;1999.90;999.90;;;5.90;82.70;;;;;;5049386;28;20061;-70
2021/04/20 04:05:06;;;;;;;1999.90;999.90;;;5.90;82.60;;;;;;5038457;28;20043;-70
2021/04/20 04:07:35;;;;;;;1999.90;999.90;;;5.90;82.70;;;;;;5052471;28;20071;-70
2021/04/20 04:10:03;;;;;;;1999.90;999.90;;;5.80;82.60;;;;;;5060989;28;20123;-70
2021/04/20 04:12:35;;;;;;;1999.90;999.90;;;5.80;82.60;;;;;;5057063;28;20071;-70
2021/04/20 04:15:02;;;;;;;1999.90;999.90;;;5.80;82.60;;;;;;5057984;28;20135;-70
2021/04/20 04:17:31;;;;;;;1999.90;999.90;;;5.70;82.70;;;;;;5054986;28;20515;-70
2021/04/20 04:20:02;;;;;;;1999.90;999.90;;;5.70;82.60;;;;;;5055873;28;20484;-71
2021/04/20 04:22:31;;;;;;;1999.90;999.90;;;5.70;82.60;;;;;;5034928;28;20059;-70
2021/04/20 04:24:59;;;;;;;;;;;5.70;82.60;;;;;;5054688;28;20049;-70
2021/04/20 04:27:28;;;;;;;1999.90;999.90;;;5.60;82.80;;;;;;5052590;28;19921;-70
2021/04/20 04:30:02;;;;;;;1999.90;999.90;;;5.60;82.50;;;;;;5062190;28;20460;-70
2021/04/20 04:32:29;;;;;;;1999.90;999.90;;;5.60;82.30;;;;;;5053603;28;20747;-70
2021/04/20 04:34:57;;;;;;;1999.90;999.90;;;5.60;82.30;;;;;;5042013;28;20370;-71
2021/04/20 04:37:24;;;;;;;1999.90;999.90;;;5.50;82.20;;;;;;5053830;28;20053;-70
2021/04/20 04:39:50;;;;;;;1999.90;999.90;;;5.50;82.30;;;;;;5066540;28;20068;-70
2021/04/20 04:42:21;;;;;;;1999.90;999.90;;;5.50;82.30;;;;;;5054455;28;20055;-70
2021/04/20 04:44:48;;;;;;;1999.90;999.90;;;5.40;82.30;;;;;;5040959;28;20041;-70
2021/04/20 04:47:14;;;;;;;1999.90;999.90;;;5.40;82.30;;;;;;5063104;28;20482;-70
2021/04/20 04:49:41;;;;;;;1999.90;999.90;;;5.40;82.40;;;;;;5071544;28;20407;-70
2021/04/20 04:52:09;;;;;;;1999.90;999.90;;;5.30;82.40;;;;;;5062309;28;20045;-71
2021/04/20 04:54:36;;;;;;;1999.90;999.90;;;5.30;82.60;;;;;;5056102;28;20044;-70
2021/04/20 04:57:04;;;;;;;1999.90;999.90;;;5.30;82.70;;;;;;5033085;28;20132;-70
2021/04/20 04:59:32;;;;;;;1999.90;999.90;;;5.30;82.80;;;;;;5055218;28;20503;-70
2021/04/20 05:02:00;;;;;;;1999.90;999.90;;;5.30;82.90;;;;;;5044736;28;20531;-70
2021/04/20 05:04:28;;;;;;;1999.90;999.90;;;5.30;83.10;;;;;;5061655;28;20047;-71
2021/04/20 05:06:55;;;;;;;1999.90;999.90;;;5.30;83.30;;;;;;5049162;28;20452;-70
2021/04/20 05:09:23;;;;;;;1999.90;999.90;;;5.30;83.40;;;;;;5052234;28;20051;-70
2021/04/20 05:11:51;;;;;;;1999.90;999.90;;;5.40;83.50;;;;;;5041986;28;20126;-70
2021/04/20 05:14:20;;;;;;;1999.90;999.90;;;5.40;83.60;;;;;;5041672;28;20470;-70
2021/04/20 05:16:47;;;;;;;1999.90;999.90;;;5.40;83.80;;;;;;5058946;28;20053;-70
2021/04/20 05:19:19;;;;;;;1999.90;999.90;;;5.40;84.00;;;;;;5038579;28;20609;-70
2021/04/20 05:21:49;;;;;;;1999.90;999.90;;;5.40;84.60;;;;;;5060010;28;20475;-71
2021/04/20 05:24:19;;;;;;;1999.90;999.90;;;5.50;84.30;;;;;;5067050;28;20535;-70
2021/04/20 05:26:47;;;;;;;1999.90;999.90;;;5.60;84.60;;;;;;5040378;28;20056;-70
2021/04/20 05:29:13;;;;;;;1999.90;999.90;;;5.60;84.80;;;;;;5041776;28;20045;-70
2021/04/20 05:31:40;;;;;;;1999.90;999.90;;;5.70;85.00;;;;;;5057810;28;20052;-70
2021/04/20 05:34:07;;;;;;;1999.90;999.90;;;5.80;85.20;;;;;;5056719;28;20060;-71
2021/04/20 05:36:35;;;;;;;1999.90;999.90;;;5.80;85.30;;;;;;5057919;28;20056;-70
2021/04/20 05:39:06;;;;;;;1999.90;999.90;;;5.90;85.50;;;;;;5060682;28;20048;-70
2021/04/20 05:41:34;;;;;;;1999.90;999.90;;;6.00;85.70;;;;;;5061465;28;20076;-70
2021/04/20 05:44:02;;;;;;;1999.90;999.90;;;6.00;85.80;;;;;;5044757;28;20467;-70
2021/04/20 05:46:29;;;;;;;1999.90;999.90;;;6.10;86.10;;;;;;5040640;28;20045;-70
2021/04/20 05:48:56;;;;;;;1999.90;999.90;;;6.20;86.40;;;;;;5060603;28;20051;-70
2021/04/20 05:51:24;;;;;;;1999.90;999.90;;;6.30;86.70;;;;;;5058177;28;20190;-70
2021/04/20 05:53:52;;;;;;;1999.90;999.90;;;6.40;86.90;;;;;;5058639;28;20044;-71
2021/04/20 05:56:20;;;;;;;1999.90;999.90;;;6.50;87.10;;;;;;5056387;28;20136;-70
2021/04/20 05:58:51;;;;;;;1999.90;999.90;;;6.60;87.30;;;;;;5038714;28;20049;-70
2021/04/20 06:01:18;;;;;;;1999.90;999.90;;;6.70;87.60;;;;;;5055123;28;20520;-70
2021/04/20 06:03:45;;;;;;;1999.90;999.90;;;6.80;87.80;;;;;;5056614;28;20124;-70
2021/04/20 06:06:15;;;;;;;1999.90;999.90;;;7.00;88.30;;;;;;5062736;28;20041;-70
2021/04/20 06:08:42;;;;;;;1999.90;999.90;;;7.10;88.40;;;;;;5053257;28;20140;-70
2021/04/20 06:11:10;;;;;;;1999.90;999.90;;;7.20;88.60;;;;;;5056687;28;20487;-70
2021/04/20 06:13:37;;;;;;;1999.90;999.90;;;7.30;88.80;;;;;;5051649;28;20041;-72
2021/04/20 06:16:04;;;;;;;1999.90;999.90;;;7.50;89.20;;;;;;5055879;28;20048;-71
2021/04/20 06:18:31;;;;;;;1999.90;999.90;;;7.60;89.40;;;;;;5052845;28;20135;-71
2021/04/20 06:21:00;;;;;;;1999.90;999.90;;;7.80;89.70;;;;;;5062603;28;20058;-71
2021/04/20 06:23:28;;;;;;;1999.90;999.90;;;8.00;90.00;;;;;;5064295;28;20068;-71
2021/04/20 06:26:00;;;;;;;1999.90;999.90;;;8.10;90.10;;;;;;5060624;28;20056;-71
2021/04/20 06:28:28;;;;;;;1999.90;999.90;;;8.30;90.20;;;;;;5059509;28;20072;-71
2021/04/20 06:30:59;;;;;;;1999.90;999.90;;;8.40;90.40;;;;;;5066464;28;20044;-72
2021/04/20 06:33:27;;;;;;;1999.90;999.90;;;8.60;90.60;;;;;;5046065;28;20041;-71
2021/04/20 06:35:54;;;;;;;1999.90;999.90;;;8.80;91.00;;;;;;5064158;28;20040;-71
2021/04/20 06:38:24;;;;;;;1999.90;999.90;;;8.90;90.80;;;;;;5063261;28;20045;-71
2021/04/20 06:40:52;;;;;;;;;;;9.10;90.90;;;;;;5051185;28;20041;-71
2021/04/20 06:43:46;;;;;;;1999.90;999.90;;;9.20;91.60;;;;;;5039045;28;19920;-72
2021/04/20 06:46:24;;;;;;;1999.90;999.90;;;9.40;91.20;;;;;;5055994;28;20054;-71
2021/04/20 06:49:05;;;;;;;1999.90;999.90;;;9.50;91.10;;;;;;5054600;28;20231;-71
2021/04/20 06:51:42;;;;;;;1999.90;999.90;;;9.70;91.30;;;;;;5045803;28;20099;-71
2021/04/20 06:54:27;;;;;;;1999.90;999.90;;;9.90;91.40;;;;;;5063365;28;20046;-72
2021/04/20 06:57:13;;;;;;;1999.90;999.90;;;10.00;90.90;;;;;;5059714;28;20044;-72
2021/04/20 06:59:48;;;;;;;1999.90;999.90;;;10.20;91.10;;;;;;5060976;28;20076;-72
2021/04/20 07:02:45;;;;;;;1999.90;999.90;;;10.40;91.20;;;;;;5046058;28;20056;-72
2021/04/20 07:05:17;;;;;;;1999.90;999.90;;;10.50;91.30;;;;;;5060062;28;20136;-72
2021/04/20 07:08:05;;;;;;;1999.90;999.90;;;10.70;91.30;;;;;;5056576;28;20488;-72
2021/04/20 07:10:37;;;;;;;1999.90;999.90;;;10.80;91.40;;;;;;5060704;28;20159;-72
2021/04/20 07:13:09;;;;;;;1999.90;999.90;;;10.90;91.30;;;;;;5034084;28;20766;-72
2021/04/20 07:15:47;;;;;;;1999.90;999.90;;;11.10;91.30;;;;;;5053852;28;20128;-72
2021/04/20 07:18:36;;;;;;;1999.90;999.90;;;11.20;91.40;;;;;;5059092;28;20068;-72
2021/04/20 07:21:31;;;;;;;1999.90;999.90;;;11.30;91.60;;;;;;5061033;28;20679;-73
2021/04/20 07:24:07;;;;;;;1999.90;999.90;;;11.40;91.50;;;;;;5059598;28;20055;-72
2021/04/20 07:27:02;;;;;;;1999.90;999.90;;;11.50;91.50;;;;;;5037856;28;20399;-71
2021/04/20 07:29:34;;;;;;;1999.90;999.90;;;11.70;91.50;;;;;;5064941;28;20040;-72
2021/04/20 07:32:11;;;;;;;1999.90;999.90;;;11.80;91.60;;;;;;5059034;28;20148;-72
2021/04/20 07:34:41;;;;;;;1999.90;999.90;;;11.90;91.70;;;;;;5045908;28;20369;-72
2021/04/20 07:37:30;;;;;;;1999.90;999.90;;;12.10;91.70;;;;;;5060232;28;20056;-72
2021/04/20 07:40:10;;;;;;;1999.90;999.90;;;12.20;91.70;;;;;;5062528;28;20054;-72
2021/04/20 07:42:55;;;;;;;1999.90;999.90;;;12.40;91.70;;;;;;5062518;28;20044;-72
2021/04/20 07:45:30;;;;;;;1999.90;999.90;;;12.50;91.80;;;;;;5061054;28;20060;-72
2021/04/20 07:48:20;;;;;;;1999.90;999.90;;;12.60;91.80;;;;;;5062992;28;20055;-73
2021/04/20 07:50:53;;;;;;;1999.90;999.90;;;12.80;92.00;;;;;;5046287;28;20089;-72
2021/04/20 07:53:27;;;;;;;1999.90;999.90;;;12.90;91.90;;;;;;5042234;28;20055;-72
2021/04/20 07:56:04;;;;;;;1999.90;999.90;;;13.00;91.80;;;;;;5063709;28;20040;-72
2021/04/20 07:58:37;;;;;;;1999.90;999.90;;;13.10;91.90;;;;;;5062765;28;20160;-73
2021/04/20 08:01:29;;;;;;;1999.90;999.90;;;13.20;91.90;;;;;;5062385;28;20474;-72
2021/04/20 08:04:31;;;;;;;1999.90;999.90;;;13.30;92.00;;;;;;5064471;28;20052;-72
2021/04/20 08:07:06;;;;;;;1999.90;999.90;;;13.40;92.00;;;;;;5049699;28;20040;-72
2021/04/20 08:09:37;;;;;;;1999.90;999.90;;;13.50;92.30;;;;;;5039783;28;20052;-73
2021/04/20 08:12:10;;;;;;;1999.90;999.90;;;13.60;92.00;;;;;;5059129;28;20922;-72
2021/04/20 08:14:48;;;;;;;1999.90;999.90;;;13.70;92.00;;;;;;5056036;28;20535;-72
2021/04/20 08:17:23;;;;;;;1999.90;999.90;;;13.70;91.90;;;;;;5056000;28;20053;-72
2021/04/20 08:19:56;;;;;;;1999.90;999.90;;;13.80;92.00;;;;;;5066296;28;20087;-73
2021/04/20 08:22:23;;;;;;;1999.90;999.90;;;13.80;91.90;;;;;;5049950;28;21722;-72
2021/04/20 08:24:59;;;;;;;1999.90;999.90;;;13.90;91.80;;;;;;5068457;28;20036;-73
2021/04/20 08:27:58;;;;;;;1999.90;999.90;;;14.00;92.10;;;;;;5039203;28;20044;-74
2021/04/20 08:30:43;;;;;;;1999.90;999.90;;;14.10;91.80;;;;;;5066445;28;20418;-72
2021/04/20 08:33:18;;;;;;;1999.90;999.90;;;14.10;91.80;;;;;;5066512;28;20040;-72
2021/04/20 08:35:49;;;;;;;1999.90;999.90;;;14.20;91.90;;;;;;5048773;28;20079;-72
2021/04/20 08:38:39;;;;;;;1999.90;999.90;;;14.30;92.00;;;;;;5042968;28;20052;-73
2021/04/20 08:41:18;;;;;;;1999.90;999.90;;;14.30;91.80;;;;;;5045918;28;20155;-73
2021/04/20 08:43:56;;;;;;;1999.90;999.90;;;14.40;91.80;;;;;;5048610;28;20052;-73
2021/04/20 08:46:41;;;;;;;1999.90;999.90;;;14.40;91.70;;;;;;5065715;28;20351;-73
2021/04/20 08:49:18;;;;;;;1999.90;999.90;;;14.50;91.70;;;;;;5061872;28;20044;-73
2021/04/20 08:52:26;;;;;;;1999.90;999.90;;;14.60;91.80;;;;;;5066461;28;20518;-73
2021/04/20 08:55:12;;;;;;;1999.90;999.90;;;14.70;91.80;;;;;;5057856;28;20467;-73
2021/04/20 08:57:50;;;;;;;1999.90;999.90;;;14.80;91.70;;;;;;5062917;28;20513;-73
2021/04/20 09:00:37;;;;;;;1999.90;999.90;;;15.00;91.80;;;;;;5045094;28;20127;-72
2021/04/20 09:03:37;;;;;;;1999.90;999.90;;;15.10;91.90;;;;;;5066478;28;20053;-73
2021/04/20 09:06:08;;;;;;;1999.90;999.90;;;15.20;91.90;;;;;;5063401;28;20139;-73
2021/04/20 09:08:38;;;;;;;1999.90;999.90;;;15.20;91.60;;;;;;5068148;28;20045;-73
2021/04/20 09:11:04;;;;;;;1999.90;999.90;;;15.30;91.70;;;;;;5062024;28;20391;-74
2021/04/20 09:13:42;;;;;;;1999.90;999.90;;;15.40;91.60;;;;;;5048478;28;20134;-73
2021/04/20 09:16:20;;;;;;;1999.90;999.90;;;15.40;91.40;;;;;;5057099;28;20064;-74
2021/04/20 09:18:47;;;;;;;1999.90;999.90;;;15.50;91.30;;;;;;5066276;28;20048;-73
2021/04/20 09:21:20;;;;;;;1999.90;999.90;;;15.60;91.30;;;;;;5064195;28;20041;-73
2021/04/20 09:24:01;;;;;;;1999.90;999.90;;;15.60;90.90;;;;;;5066788;28;20037;-74
2021/04/20 09:27:04;;;;;;;1999.90;999.90;;;15.70;90.60;;;;;;5060104;28;20216;-74
2021/04/20 09:29:41;;;;;;;1999.90;999.90;;;15.80;91.10;;;;;;5060828;28;20077;-74
2021/04/20 09:32:16;;;;;;;1999.90;999.90;;;15.80;90.90;;;;;;5062348;28;20573;-74
2021/04/20 09:34:45;;;;;;;1999.90;999.90;;;15.90;90.50;;;;;;5053586;28;20049;-76
2021/04/20 09:37:12;;;;;;;1999.90;999.90;;;16.00;90.30;;;;;;5058690;28;20048;-74
2021/04/20 09:39:42;;;;;;;1999.90;999.90;;;16.00;90.10;;;;;;5058062;28;20049;-75
2021/04/20 09:42:10;;;;;;;1999.90;999.90;;;16.00;90.00;;;;;;5058714;28;20055;-74
2021/04/20 09:44:45;;;;;;;1999.90;999.90;;;16.10;90.00;;;;;;5058508;28;20080;-75
2021/04/20 09:47:30;;;;;;;1999.90;999.90;;;16.20;90.30;;;;;;5061024;28;20124;-75
2021/04/20 09:50:04;;;;;;;1999.90;999.90;;;16.30;88.20;;;;;;5064810;28;20041;-75
2021/04/20 09:53:01;;;;;;;1999.90;999.90;;;16.50;89.40;;;;;;5054978;28;20037;-75
2021/04/20 09:55:39;;;;;;;1999.90;999.90;;;16.60;88.30;;;;;;5041208;28;20407;-75
2021/04/20 09:58:08;;;;;;;1999.90;999.90;;;16.60;88.00;;;;;;5049927;28;20541;-75
2021/04/20 10:00:37;;;;;;;1999.90;999.90;;;16.70;88.50;;;;;;5065317;28;20056;-74
2021/04/20 10:03:24;;;;;;;1999.90;999.90;;;16.70;87.60;;;;;;5043890;28;20127;-75
2021/04/20 10:06:03;;;;;;;1999.90;999.90;;;16.80;88.00;;;;;;5068738;28;20480;-75
2021/04/20 10:09:07;;;;;;;1999.90;999.90;;;16.90;87.50;;;;;;5061519;28;20049;-75
2021/04/20 10:11:57;;;;;;;1999.90;999.90;;;17.00;85.70;;;;;;5048137;28;20079;-74
2021/04/20 10:14:59;;;;;;;1999.90;999.90;;;17.10;85.60;;;;;;5062881;28;20048;-75
2021/04/20 10:18:03;;;;;;;1999.90;999.90;;;17.00;78.60;;;;;;5063076;28;20052;-74
2021/04/20 10:20:48;;;;;;;1999.90;999.90;;;17.00;86.40;;;;;;5042604;28;20164;-75
2021/04/20 10:23:46;;;;;;;1999.90;999.90;;;16.90;86.80;;;;;;5029041;28;20131;-75
2021/04/20 10:26:26;;;;;;;1999.90;999.90;;;16.90;84.30;;;;;;5039538;28;20380;-75
2021/04/20 10:28:58;;;;;;;1999.90;999.90;;;16.70;85.80;;;;;;5046857;28;20447;-74
2021/04/20 10:31:36;;;;;;;1999.90;999.90;;;16.70;88.00;;;;;;5044034;28;20061;-75
2021/04/20 10:34:03;;;;;;;1999.90;999.90;;;16.80;86.90;;;;;;5043316;28;20072;-75
2021/04/20 10:36:31;;;;;;;1999.90;999.90;;;16.80;89.00;;;;;;5040810;28;20504;-75
2021/04/20 10:39:06;;;;;;;1999.90;999.90;;;16.80;88.70;;;;;;5028623;28;20073;-75
2021/04/20 10:41:35;;;;;;;1999.90;999.90;;;16.90;88.50;;;;;;5027600;28;20506;-74
2021/04/20 10:44:13;;;;;;;1999.90;999.90;;;16.90;89.00;;;;;;5046582;28;20048;-74
2021/04/20 10:46:41;;;;;;;1999.90;999.90;;;17.00;89.60;;;;;;5063454;28;20040;-74
2021/04/20 10:49:16;;;;;;;1999.90;999.90;;;17.10;90.00;;;;;;5066620;28;20048;-74
2021/04/20 10:51:42;;;;;;;1999.90;999.90;;;17.20;90.30;;;;;;5041957;28;20167;-75
2021/04/20 10:54:11;;;;;;;1999.90;999.90;;;17.30;90.30;;;;;;5046813;28;20476;-74
2021/04/20 10:56:38;;;;;;;1999.90;999.90;;;17.40;90.40;;;;;;5065992;28;20063;-75
2021/04/20 10:59:09;;;;;;;1999.90;999.90;;;17.50;90.40;;;;;;5045403;28;20149;-74
2021/04/20 11:01:40;;;;;;;1999.90;999.90;;;17.50;90.30;;;;;;5064766;28;20094;-75
2021/04/20 11:04:08;;;;;;;1999.90;999.90;;;17.60;90.30;;;;;;5066294;28;20048;-74
2021/04/20 11:07:12;;;;;;;1999.90;999.90;;;17.70;90.40;;;;;;5058333;28;20072;-75
2021/04/20 11:09:39;;;;;;;1999.90;999.90;;;17.70;90.40;;;;;;5060230;28;20044;-75
2021/04/20 11:12:17;;;;;;;1999.90;999.90;;;17.80;90.10;;;;;;5062063;28;20095;-74
2021/04/20 11:14:50;;;;;;;1999.90;999.90;;;17.80;90.10;;;;;;5060932;28;20045;-74
2021/04/20 11:17:33;;;;;;;1999.90;999.90;;;17.90;90.30;;;;;;5058399;28;20525;-75
2021/04/20 11:20:06;;;;;;;1999.90;999.90;;;17.90;89.20;;;;;;5065977;28;20414;-75
2021/04/20 11:22:56;;;;;;;1999.90;999.90;;;18.00;89.80;;;;;;5062163;28;20128;-75
2021/04/20 11:25:30;;;;;;;1999.90;999.90;;;18.00;89.80;;;;;;5044529;28;20048;-75
2021/04/20 11:28:01;;;;;;;1999.90;999.90;;;18.10;90.60;;;;;;5060280;28;20076;-75
2021/04/20 11:30:33;;;;;;;1999.90;999.90;;;18.10;90.20;;;;;;5059754;28;20041;-75
2021/04/20 11:33:14;;;;;;;1999.90;999.90;;;18.10;90.20;;;;;;5062001;28;20043;-74
2021/04/20 11:35:44;;;;;;;1999.90;999.90;;;18.30;90.20;;;;;;5060336;28;20132;-74
2021/04/20 11:38:13;;;;;;;1999.90;999.90;;;18.50;90.10;;;;;;5059644;28;20464;-75
2021/04/20 11:40:43;;;;;;;1999.90;999.90;;;18.60;90.50;;;;;;5057857;28;20510;-75
2021/04/20 11:43:14;;;;;;;1999.90;999.90;;;18.80;90.60;;;;;;5063652;28;20535;-75
2021/04/20 11:45:43;;;;;;;1999.90;999.90;;;19.00;91.40;;;;;;5057315;28;20044;-75
2021/04/20 11:48:14;;;;;;;1999.90;999.90;;;19.20;91.30;;;;;;5043269;28;20115;-75
2021/04/20 11:50:51;;;;;;;1999.90;999.90;;;19.20;91.20;;;;;;5043295;28;20064;-75
2021/04/20 11:53:19;;;;;;;1999.90;999.90;;;19.30;91.70;;;;;;5064451;28;20045;-74
2021/04/20 11:55:47;;;;;;;1999.90;999.90;;;19.40;91.70;;;;;;5057264;28;20045;-74
2021/04/20 11:58:35;;;;;;;1999.90;999.90;;;19.70;91.10;;;;;;5037945;28;20048;-75
2021/04/20 12:01:21;;;;;;;1999.90;999.90;;;20.00;85.00;;;;;;5060930;28;20049;-75
2021/04/20 12:03:59;;;;;;;1999.90;999.90;;;20.30;91.40;;;;;;5045011;28;20045;-75
2021/04/20 12:06:43;;;;;;;1999.90;999.90;;;20.70;91.30;;;;;;5061162;28;20828;-75
2021/04/20 12:09:15;;;;;;;1999.90;999.90;;;20.90;91.70;;;;;;5058509;28;20048;-74
2021/04/20 12:11:43;;;;;;;1999.90;999.90;;;21.10;92.10;;;;;;5063590;28;20468;-75
2021/04/20 12:14:11;;;;;;;1999.90;999.90;;;21.10;92.40;;;;;;5047000;28;20106;-74
2021/04/20 12:16:38;;;;;;;1999.90;999.90;;;21.20;93.00;;;;;;5058491;28;20043;-75
2021/04/20 12:19:06;;;;;;;1999.90;999.90;;;21.30;93.20;;;;;;5048366;28;20435;-75
2021/04/20 12:21:38;;;;;;;1999.90;999.90;;;21.40;94.00;;;;;;5062786;28;20141;-74
2021/04/20 12:24:09;;;;;;;1999.90;999.90;;;21.50;93.50;;;;;;5045027;28;20047;-75
2021/04/20 12:26:37;;;;;;;1999.90;999.90;;;21.40;91.60;;;;;;5046862;28;20069;-74
2021/04/20 12:29:13;;;;;;;;;;;21.20;90.70;;;;;;5067718;28;20043;-74
2021/04/20 12:31:40;;;;;;;1999.90;999.90;;;20.90;74.10;;;;;;5055718;28;20148;-74
2021/04/20 12:34:07;;;;;;;1999.90;999.90;;;20.60;87.20;;;;;;5048122;28;20076;-74